Time;durP1;ratioP1;P1;durP2;ratioP2;P2;SDS_P1;SDS_P2;PMS_P1;PMS_P2;Temp;Humidity;BMP_temperature;BMP_pressure;BME280_temperature;BME280_humidity;BME280_pressure;Samples;Min_cycle;Max_cycle;Signal;HPM_P1;HPM_P2
2021/06/13 00:00:51;;;;;;;10.10;8.40;;;;;;;;;;5101474;27;20485;-44
2021/06/13 00:03:16;;;;;;;14.10;8.90;;;;;;;;;;5102361;27;20076;-42
2021/06/13 00:05:41;;;;;;;9.57;8.57;;;;;;;;;;5101953;27;20193;-40
2021/06/13 00:08:06;;;;;;;8.30;7.47;;;;;;;;;;5102958;27;20104;-41
2021/06/13 00:10:32;;;;;;;7.47;6.80;;;;;;;;;;5105636;27;20047;-41
2021/06/13 00:12:57;;;;;;;8.07;7.35;;;;;;;;;;5107019;27;20024;-43
2021/06/13 00:15:24;;;;;;;13.20;7.65;;;;;;;;;;5101884;27;20513;-50
2021/06/13 00:17:50;;;;;;;9.27;8.38;;;;;;;;;;5103015;27;20012;-41
2021/06/13 00:20:18;;;;;;;7.93;7.13;;;;;;;;;;5104272;27;20019;-43
2021/06/13 00:22:44;;;;;;;7.80;7.07;;;;;;;;;;5105178;27;20024;-43
2021/06/13 00:25:09;;;;;;;9.27;6.93;;;;;;;;;;5099008;27;20035;-46
2021/06/13 00:27:35;;;;;;;8.25;7.50;;;;;;;;;;5097153;28;20027;-45
2021/06/13 00:30:00;;;;;;;7.25;6.55;;;;;;;;;;5096946;28;20047;-44
2021/06/13 00:32:28;;;;;;;7.65;6.85;;;;;;;;;;5100569;28;20067;-41
2021/06/13 00:34:53;;;;;;;31.63;29.23;;;;;;;;;;5099608;28;20023;-46
2021/06/13 00:37:18;;;;;;;11.52;10.43;;;;;;;;;;5101801;28;20531;-41
2021/06/13 00:39:43;;;;;;;9.07;8.18;;;;;;;;;;5104476;27;20023;-43
2021/06/13 00:42:09;;;;;;;9.50;8.60;;;;;;;;;;5101218;28;20194;-42
2021/06/13 00:44:34;;;;;;;8.80;7.97;;;;;;;;;;5103662;28;20055;-41
2021/06/13 00:46:59;;;;;;;15.43;8.45;;;;;;;;;;5104966;28;20028;-41
2021/06/13 00:49:24;;;;;;;10.77;8.10;;;;;;;;;;5101921;28;20015;-41
2021/06/13 00:51:50;;;;;;;9.15;7.00;;;;;;;;;;5100449;28;20390;-41
2021/06/13 00:54:15;;;;;;;18.48;8.93;;;;;;;;;;5096863;28;20012;-41
2021/06/13 00:56:41;;;;;;;8.70;7.80;;;;;;;;;;5102996;27;20044;-43
2021/06/13 00:59:06;;;;;;;7.07;6.47;;;;;;;;;;5102726;28;20105;-41
2021/06/13 01:01:31;;;;;;;9.73;8.13;;;;;;;;;;5098291;28;20397;-43
2021/06/13 01:03:57;;;;;;;9.00;8.10;;;;;;;;;;5100970;28;20118;-43
2021/06/13 01:06:30;;;;;;;9.23;8.25;;;;;;;;;;5101327;28;20055;-43
2021/06/13 01:08:59;;;;;;;12.57;8.18;;;;;;;;;;5106237;27;20103;-40
2021/06/13 01:11:33;;;;;;;8.05;7.25;;;;;;;;;;5103943;27;20028;-41
2021/06/13 01:14:05;;;;;;;9.77;8.77;;;;;;;;;;5106336;27;20031;-43
2021/06/13 01:16:46;;;;;;;7.13;6.53;;;;;;;;;;5106043;27;20385;-40
2021/06/13 01:19:37;;;;;;;7.15;6.28;;;;;;;;;;5103143;27;20020;-41
2021/06/13 01:22:02;;;;;;;7.03;6.40;;;;;;;;;;5108068;27;20012;-41
2021/06/13 01:24:37;;;;;;;7.45;6.85;;;;;;;;;;5100423;27;20027;-41
2021/06/13 01:27:25;;;;;;;9.93;7.25;;;;;;;;;;5104507;27;20103;-42
2021/06/13 01:29:51;;;;;;;7.50;6.80;;;;;;;;;;5104444;27;20024;-40
2021/06/13 01:32:18;;;;;;;8.75;7.35;;;;;;;;;;5114039;27;20094;-40
2021/06/13 01:34:56;;;;;;;7.80;5.80;;;;;;;;;;5116751;27;20007;-40
2021/06/13 01:37:23;;;;;;;10.43;6.95;;;;;;;;;;5104392;27;20527;-43
2021/06/13 01:39:50;;;;;;;9.30;7.32;;;;;;;;;;5107061;27;20027;-40
2021/06/13 01:42:17;;;;;;;8.18;6.15;;;;;;;;;;5099374;27;20024;-41
2021/06/13 01:44:43;;;;;;;21.42;6.05;;;;;;;;;;5103022;27;20072;-41
2021/06/13 01:47:09;;;;;;;8.13;5.35;;;;;;;;;;5099466;27;20039;-41
2021/06/13 01:49:35;;;;;;;8.07;7.30;;;;;;;;;;5100988;27;20020;-41
2021/06/13 01:52:00;;;;;;;7.10;6.38;;;;;;;;;;5106171;27;20027;-41
2021/06/13 01:54:27;;;;;;;8.65;6.63;;;;;;;;;;5109492;27;20445;-39
2021/06/13 01:56:53;;;;;;;8.25;7.45;;;;;;;;;;5109533;27;20016;-41
2021/06/13 01:59:18;;;;;;;7.28;6.40;;;;;;;;;;5108364;27;20023;-41
2021/06/13 02:01:44;;;;;;;10.88;6.20;;;;;;;;;;5112459;27;20012;-39
2021/06/13 02:04:10;;;;;;;8.52;7.28;;;;;;;;;;5107785;27;20092;-40
2021/06/13 02:06:37;;;;;;;11.77;5.90;;;;;;;;;;5107786;27;20450;-39
2021/06/13 02:09:04;;;;;;;9.95;6.13;;;;;;;;;;5098314;28;20024;-39
2021/06/13 02:11:30;;;;;;;7.15;6.47;;;;;;;;;;5105949;27;20028;-40
2021/06/13 02:13:56;;;;;;;11.43;6.47;;;;;;;;;;5098195;27;20016;-39
2021/06/13 02:16:22;;;;;;;7.78;6.90;;;;;;;;;;5098214;27;20091;-43
2021/06/13 02:18:49;;;;;;;7.10;6.40;;;;;;;;;;5098691;27;20085;-40
2021/06/13 02:21:14;;;;;;;7.75;6.95;;;;;;;;;;5105274;27;20015;-40
2021/06/13 02:23:41;;;;;;;7.85;7.03;;;;;;;;;;5110270;27;20029;-40
2021/06/13 02:26:08;;;;;;;9.38;8.27;;;;;;;;;;5109033;27;20015;-39
2021/06/13 02:28:35;;;;;;;8.70;7.97;;;;;;;;;;5101071;27;20024;-40
2021/06/13 02:31:01;;;;;;;9.60;8.65;;;;;;;;;;5103834;27;20072;-40
2021/06/13 02:33:27;;;;;;;8.32;7.63;;;;;;;;;;5101842;27;20031;-42
2021/06/13 02:35:53;;;;;;;8.93;7.75;;;;;;;;;;5101589;27;20491;-39
2021/06/13 02:38:19;;;;;;;7.25;6.50;;;;;;;;;;5103793;27;20026;-42
2021/06/13 02:40:45;;;;;;;10.73;6.22;;;;;;;;;;5102729;27;20339;-42
2021/06/13 02:43:10;;;;;;;8.15;7.45;;;;;;;;;;5102615;27;20077;-41
2021/06/13 02:45:36;;;;;;;8.15;7.45;;;;;;;;;;5111552;27;20554;-39
2021/06/13 02:48:02;;;;;;;12.05;6.45;;;;;;;;;;5107000;27;20438;-41
2021/06/13 02:50:27;;;;;;;6.95;5.93;;;;;;;;;;5114504;27;20054;-40
2021/06/13 02:53:14;;;;;;;8.27;7.47;;;;;;;;;;5111647;27;20023;-39
2021/06/13 02:55:39;;;;;;;8.25;7.45;;;;;;;;;;5099585;27;20073;-39
2021/06/13 02:58:11;;;;;;;7.95;7.15;;;;;;;;;;5095873;27;20016;-41
2021/06/13 03:00:36;;;;;;;15.20;9.50;;;;;;;;;;5101253;27;20775;-42
2021/06/13 03:03:02;;;;;;;11.73;7.95;;;;;;;;;;5106116;27;20028;-39
2021/06/13 03:05:28;;;;;;;12.07;7.93;;;;;;;;;;5101360;27;20047;-39
2021/06/13 03:07:54;;;;;;;11.90;6.63;;;;;;;;;;5099535;27;20027;-40
2021/06/13 03:10:20;;;;;;;10.45;7.03;;;;;;;;;;5105026;27;20035;-42
2021/06/13 03:12:46;;;;;;;7.85;7.15;;;;;;;;;;5107202;27;20494;-40
2021/06/13 03:15:12;;;;;;;8.95;7.82;;;;;;;;;;5103871;27;20016;-39
2021/06/13 03:17:39;;;;;;;8.80;7.18;;;;;;;;;;5100259;27;20022;-39
2021/06/13 03:20:13;;;;;;;8.95;7.68;;;;;;;;;;5103284;27;20053;-42
2021/06/13 03:22:39;;;;;;;7.30;6.60;;;;;;;;;;5108820;27;20013;-40
2021/06/13 03:25:06;;;;;;;8.07;7.20;;;;;;;;;;5102432;27;20338;-39
2021/06/13 03:27:32;;;;;;;11.57;6.63;;;;;;;;;;5101991;27;20020;-39
2021/06/13 03:29:57;;;;;;;10.05;6.63;;;;;;;;;;5097501;27;20103;-40
2021/06/13 03:32:23;;;;;;;7.90;7.15;;;;;;;;;;5099646;27;20154;-40
2021/06/13 03:34:49;;;;;;;6.70;5.85;;;;;;;;;;5098402;27;20499;-40
2021/06/13 03:37:14;;;;;;;8.00;7.25;;;;;;;;;;5098398;28;20047;-40
2021/06/13 03:39:41;;;;;;;7.10;6.38;;;;;;;;;;5103184;27;20086;-40
2021/06/13 03:42:07;;;;;;;8.55;6.30;;;;;;;;;;5103686;27;20544;-44
2021/06/13 03:44:33;;;;;;;7.68;6.93;;;;;;;;;;5106993;27;20025;-44
2021/06/13 03:46:58;;;;;;;7.15;6.50;;;;;;;;;;5102128;27;20486;-43
2021/06/13 03:49:24;;;;;;;8.52;6.82;;;;;;;;;;5105533;27;20062;-45
2021/06/13 03:51:50;;;;;;;6.07;5.00;;;;;;;;;;5103127;27;20099;-43
2021/06/13 03:54:15;;;;;;;7.50;6.80;;;;;;;;;;5105258;27;20130;-41
2021/06/13 03:56:44;;;;;;;7.15;6.47;;;;;;;;;;5099968;27;20086;-41
2021/06/13 03:59:10;;;;;;;6.13;5.53;;;;;;;;;;5104398;27;20317;-41
2021/06/13 04:01:36;;;;;;;8.48;7.63;;;;;;;;;;5101857;27;20522;-41
2021/06/13 04:04:02;;;;;;;8.80;7.40;;;;;;;;;;5100968;27;20015;-39
2021/06/13 04:06:28;;;;;;;10.23;7.55;;;;;;;;;;5101451;27;20101;-40
2021/06/13 04:08:53;;;;;;;9.23;8.27;;;;;;;;;;5094188;28;20051;-45
2021/06/13 04:11:19;;;;;;;8.38;7.68;;;;;;;;;;5103316;27;20016;-40
2021/06/13 04:13:46;;;;;;;9.73;7.88;;;;;;;;;;5103365;27;20165;-39
2021/06/13 04:16:11;;;;;;;9.15;8.32;;;;;;;;;;5097465;27;20039;-42
2021/06/13 04:18:37;;;;;;;8.48;7.72;;;;;;;;;;5099308;27;20400;-40
2021/06/13 04:21:08;;;;;;;9.25;8.40;;;;;;;;;;5097947;27;20511;-40
2021/06/13 04:23:33;;;;;;;9.30;7.03;;;;;;;;;;5101609;28;20020;-40
2021/06/13 04:25:59;;;;;;;8.02;7.22;;;;;;;;;;5102679;27;20038;-39
2021/06/13 04:28:24;;;;;;;8.43;7.60;;;;;;;;;;5101974;27;20680;-41
2021/06/13 04:31:06;;;;;;;7.57;6.97;;;;;;;;;;5102136;28;20023;-41
2021/06/13 04:33:32;;;;;;;7.53;6.88;;;;;;;;;;5107684;28;20031;-40
2021/06/13 04:35:58;;;;;;;7.55;6.38;;;;;;;;;;5102552;28;20020;-40
2021/06/13 04:38:23;;;;;;;7.45;6.70;;;;;;;;;;5104223;28;20439;-40
2021/06/13 04:40:48;;;;;;;9.60;8.38;;;;;;;;;;5101281;28;20027;-39
2021/06/13 04:43:14;;;;;;;9.07;8.23;;;;;;;;;;5105547;27;20056;-41
2021/06/13 04:45:39;;;;;;;11.75;6.95;;;;;;;;;;5103402;27;20024;-39
2021/06/13 04:48:06;;;;;;;8.88;8.07;;;;;;;;;;5102251;27;20493;-39
2021/06/13 04:50:32;;;;;;;8.73;7.93;;;;;;;;;;5107142;27;20023;-39
2021/06/13 04:52:58;;;;;;;9.85;8.45;;;;;;;;;;5109174;27;20031;-40
2021/06/13 04:55:31;;;;;;;9.88;8.20;;;;;;;;;;5107501;27;20016;-40
2021/06/13 04:57:56;;;;;;;9.15;8.25;;;;;;;;;;5101121;27;20097;-41
2021/06/13 05:00:22;;;;;;;7.25;6.60;;;;;;;;;;5107404;27;20055;-40
2021/06/13 05:02:47;;;;;;;9.48;7.25;;;;;;;;;;5111716;27;20031;-39
2021/06/13 05:05:14;;;;;;;6.47;5.88;;;;;;;;;;5105964;27;20044;-41
2021/06/13 05:07:40;;;;;;;7.25;6.55;;;;;;;;;;5100962;27;20073;-42
2021/06/13 05:10:05;;;;;;;8.50;6.75;;;;;;;;;;5106483;27;20553;-43
2021/06/13 05:12:41;;;;;;;7.90;7.10;;;;;;;;;;5106136;27;20449;-41
2021/06/13 05:15:07;;;;;;;6.10;5.50;;;;;;;;;;5113635;27;20028;-41
2021/06/13 05:17:32;;;;;;;7.85;6.55;;;;;;;;;;5107952;27;20348;-40
2021/06/13 05:19:57;;;;;;;7.28;6.57;;;;;;;;;;5102402;27;20438;-39
2021/06/13 05:22:22;;;;;;;16.40;8.75;;;;;;;;;;5099400;27;20028;-41
2021/06/13 05:24:48;;;;;;;8.30;7.30;;;;;;;;;;5108013;27;20040;-40
2021/06/13 05:27:13;;;;;;;9.80;8.75;;;;;;;;;;5108405;27;20493;-40
2021/06/13 05:29:38;;;;;;;19.40;16.83;;;;;;;;;;5105781;27;20015;-39
2021/06/13 05:32:04;;;;;;;20.83;13.95;;;;;;;;;;5102418;27;20639;-39
2021/06/13 05:34:29;;;;;;;13.50;11.73;;;;;;;;;;5104640;27;20088;-38
2021/06/13 05:36:55;;;;;;;14.82;11.73;;;;;;;;;;5097860;27;20035;-39
2021/06/13 05:39:20;;;;;;;15.13;13.88;;;;;;;;;;5111519;27;20355;-39
2021/06/13 05:41:45;;;;;;;13.45;11.77;;;;;;;;;;5113320;27;20020;-39
2021/06/13 05:44:11;;;;;;;11.15;10.23;;;;;;;;;;5109779;27;20024;-41
2021/06/13 05:46:36;;;;;;;14.10;12.80;;;;;;;;;;5107449;27;20035;-39
2021/06/13 05:49:01;;;;;;;12.88;10.65;;;;;;;;;;5106323;27;20019;-39
2021/06/13 05:51:27;;;;;;;9.15;8.25;;;;;;;;;;5100290;27;20028;-40
2021/06/13 05:53:52;;;;;;;10.65;9.52;;;;;;;;;;5100057;28;20119;-39
2021/06/13 05:56:17;;;;;;;12.80;11.70;;;;;;;;;;5099981;27;20519;-39
2021/06/13 05:58:43;;;;;;;16.83;11.63;;;;;;;;;;5106790;27;20055;-39
2021/06/13 06:01:14;;;;;;;13.00;11.75;;;;;;;;;;5101720;27;20068;-41
2021/06/13 06:03:39;;;;;;;14.05;12.52;;;;;;;;;;5098084;27;20061;-41
2021/06/13 06:06:05;;;;;;;14.68;11.98;;;;;;;;;;5095474;27;20131;-39
2021/06/13 06:08:30;;;;;;;14.27;12.82;;;;;;;;;;5102653;27;20115;-40
2021/06/13 06:10:55;;;;;;;13.70;12.57;;;;;;;;;;5104914;27;20023;-41
2021/06/13 06:13:21;;;;;;;19.75;14.40;;;;;;;;;;5101619;27;20023;-41
2021/06/13 06:15:46;;;;;;;17.00;15.18;;;;;;;;;;5099856;27;20478;-40
2021/06/13 06:18:12;;;;;;;16.15;14.55;;;;;;;;;;5099417;27;20517;-40
2021/06/13 06:20:37;;;;;;;16.60;13.30;;;;;;;;;;5096040;27;20020;-43
2021/06/13 06:23:03;;;;;;;15.73;11.45;;;;;;;;;;5098332;27;20043;-41
2021/06/13 06:25:28;;;;;;;16.30;14.50;;;;;;;;;;5100508;27;20026;-41
2021/06/13 06:27:54;;;;;;;18.13;14.35;;;;;;;;;;5103915;27;20028;-42
2021/06/13 06:30:20;;;;;;;13.10;11.77;;;;;;;;;;5103426;27;20108;-40
2021/06/13 06:32:46;;;;;;;18.92;15.88;;;;;;;;;;5101037;27;20562;-40
2021/06/13 06:35:12;;;;;;;14.90;12.70;;;;;;;;;;5098631;27;20019;-41
2021/06/13 06:37:39;;;;;;;10.02;9.05;;;;;;;;;;5099410;27;20764;-40
2021/06/13 06:40:05;;;;;;;13.30;11.88;;;;;;;;;;5100984;27;20020;-41
2021/06/13 06:42:32;;;;;;;11.43;10.30;;;;;;;;;;5099717;27;20038;-41
2021/06/13 06:44:57;;;;;;;14.40;10.48;;;;;;;;;;5101500;27;20023;-41
2021/06/13 06:47:23;;;;;;;11.25;10.15;;;;;;;;;;5098678;27;20024;-41
2021/06/13 06:49:48;;;;;;;16.33;14.00;;;;;;;;;;5099663;27;20486;-41
2021/06/13 06:52:13;;;;;;;17.08;10.38;;;;;;;;;;5102416;27;20363;-41
2021/06/13 06:54:40;;;;;;;30.58;11.30;;;;;;;;;;5098012;27;20127;-40
2021/06/13 06:57:06;;;;;;;76.30;61.05;;;;;;;;;;5102804;27;20027;-41
2021/06/13 06:59:31;;;;;;;139.43;110.43;;;;;;;;;;5108824;27;20382;-40
2021/06/13 07:01:56;;;;;;;113.50;93.18;;;;;;;;;;5100328;27;20020;-40
2021/06/13 07:04:22;;;;;;;111.90;85.00;;;;;;;;;;5102643;27;20036;-43
2021/06/13 07:06:47;;;;;;;73.20;62.65;;;;;;;;;;5102954;27;20046;-41
2021/06/13 07:09:13;;;;;;;54.15;37.67;;;;;;;;;;5096400;27;20073;-41
2021/06/13 07:11:38;;;;;;;28.58;25.00;;;;;;;;;;5095071;28;20573;-43
2021/06/13 07:14:03;;;;;;;19.67;17.55;;;;;;;;;;5096557;27;20146;-41
2021/06/13 07:16:28;;;;;;;16.58;12.90;;;;;;;;;;5100869;27;20015;-41
2021/06/13 07:18:54;;;;;;;23.48;20.73;;;;;;;;;;5105050;27;20736;-41
2021/06/13 07:21:19;;;;;;;14.55;13.13;;;;;;;;;;5104718;27;20467;-41
2021/06/13 07:23:44;;;;;;;38.58;32.05;;;;;;;;;;5098235;27;20039;-42
2021/06/13 07:26:10;;;;;;;39.65;31.58;;;;;;;;;;5099279;27;20030;-42
2021/06/13 07:28:35;;;;;;;31.02;24.65;;;;;;;;;;5101266;27;20027;-45
2021/06/13 07:31:01;;;;;;;20.65;17.75;;;;;;;;;;5101578;27;20117;-42
2021/06/13 07:33:26;;;;;;;25.88;15.20;;;;;;;;;;5102834;27;20394;-45
2021/06/13 07:35:53;;;;;;;18.15;13.85;;;;;;;;;;5099539;27;20094;-42
2021/06/13 07:38:18;;;;;;;16.88;12.80;;;;;;;;;;5098893;27;20020;-40
2021/06/13 07:40:43;;;;;;;16.10;12.88;;;;;;;;;;5094832;27;20069;-40
2021/06/13 07:43:08;;;;;;;11.57;10.43;;;;;;;;;;5100571;27;20726;-41
2021/06/13 07:45:34;;;;;;;11.90;10.90;;;;;;;;;;5095418;27;20051;-40
2021/06/13 07:47:59;;;;;;;24.42;12.60;;;;;;;;;;5099919;27;20022;-40
2021/06/13 07:50:25;;;;;;;20.65;13.65;;;;;;;;;;5095917;27;20121;-42
2021/06/13 07:52:50;;;;;;;17.50;12.85;;;;;;;;;;5099176;27;20022;-41
2021/06/13 07:55:17;;;;;;;16.67;13.88;;;;;;;;;;5099253;27;20106;-42
2021/06/13 07:57:43;;;;;;;11.10;9.98;;;;;;;;;;5105165;27;20016;-43
2021/06/13 08:00:12;;;;;;;12.48;9.52;;;;;;;;;;5101371;27;20035;-42
2021/06/13 08:02:38;;;;;;;7.72;7.03;;;;;;;;;;5097395;27;20449;-41
2021/06/13 08:05:08;;;;;;;10.43;5.75;;;;;;;;;;5102123;27;20024;-42
2021/06/13 08:07:33;;;;;;;9.90;8.90;;;;;;;;;;5098330;27;20028;-43
2021/06/13 08:09:59;;;;;;;8.93;8.07;;;;;;;;;;5095506;27;20042;-37
2021/06/13 08:12:24;;;;;;;7.65;6.60;;;;;;;;;;5104955;27;20098;-37
2021/06/13 08:14:50;;;;;;;8.30;7.30;;;;;;;;;;5098572;27;20547;-37
2021/06/13 08:17:15;;;;;;;8.75;5.97;;;;;;;;;;5104156;27;20553;-37
2021/06/13 08:19:40;;;;;;;14.05;8.18;;;;;;;;;;5102314;27;20023;-36
2021/06/13 08:22:06;;;;;;;9.30;6.72;;;;;;;;;;5098291;27;20474;-37
2021/06/13 08:24:32;;;;;;;13.25;12.02;;;;;;;;;;5094241;28;20027;-37
2021/06/13 08:26:58;;;;;;;15.55;14.05;;;;;;;;;;5094193;28;20101;-38
2021/06/13 08:29:23;;;;;;;16.45;14.50;;;;;;;;;;5102892;27;20809;-38
2021/06/13 08:31:49;;;;;;;17.17;12.98;;;;;;;;;;5100450;28;20591;-41
2021/06/13 08:34:14;;;;;;;12.98;11.45;;;;;;;;;;5102377;28;20032;-39
2021/06/13 08:36:40;;;;;;;14.70;12.77;;;;;;;;;;5101921;28;20024;-39
2021/06/13 08:39:05;;;;;;;12.57;10.02;;;;;;;;;;5106953;27;20031;-40
2021/06/13 08:41:30;;;;;;;16.88;15.15;;;;;;;;;;5109038;27;20022;-39
2021/06/13 08:43:56;;;;;;;10.90;9.90;;;;;;;;;;5107014;27;20038;-41
2021/06/13 08:46:22;;;;;;;28.50;13.27;;;;;;;;;;5100448;28;20756;-39
2021/06/13 08:48:48;;;;;;;10.80;6.82;;;;;;;;;;5106382;28;20027;-39
2021/06/13 08:51:14;;;;;;;6.35;5.75;;;;;;;;;;5102247;28;20494;-39
2021/06/13 08:53:45;;;;;;;8.07;6.97;;;;;;;;;;5096409;28;20024;-39
2021/06/13 08:56:14;;;;;;;9.35;6.97;;;;;;;;;;5096473;28;20060;-36
2021/06/13 08:58:39;;;;;;;6.30;4.97;;;;;;;;;;5097028;28;20028;-36
2021/06/13 09:01:05;;;;;;;5.63;5.00;;;;;;;;;;5093817;28;20024;-36
2021/06/13 09:03:31;;;;;;;6.78;4.15;;;;;;;;;;5095767;28;20035;-36
2021/06/13 09:05:56;;;;;;;5.03;4.47;;;;;;;;;;5099390;28;20048;-35
2021/06/13 09:08:21;;;;;;;4.47;4.03;;;;;;;;;;5097244;28;20143;-36
2021/06/13 09:10:47;;;;;;;7.35;5.13;;;;;;;;;;5102211;28;20621;-34
2021/06/13 09:13:12;;;;;;;5.13;4.40;;;;;;;;;;5101791;28;20569;-37
2021/06/13 09:15:39;;;;;;;4.43;4.03;;;;;;;;;;5098525;28;20098;-36
2021/06/13 09:18:06;;;;;;;4.05;3.13;;;;;;;;;;5097169;28;20031;-36
2021/06/13 09:20:31;;;;;;;5.25;4.75;;;;;;;;;;5100874;28;20799;-37
2021/06/13 09:23:05;;;;;;;9.23;3.58;;;;;;;;;;5098583;28;20036;-37
2021/06/13 09:25:31;;;;;;;2.97;2.50;;;;;;;;;;5097496;28;20371;-37
2021/06/13 09:28:23;;;;;;;7.93;4.80;;;;;;;;;;5098487;28;20046;-37
2021/06/13 09:30:51;;;;;;;5.43;4.93;;;;;;;;;;5106017;27;20074;-37
2021/06/13 09:33:16;;;;;;;4.03;3.60;;;;;;;;;;5103870;27;20478;-37
2021/06/13 09:35:42;;;;;;;6.78;4.32;;;;;;;;;;5103339;27;20035;-38
2021/06/13 09:38:15;;;;;;;8.25;4.97;;;;;;;;;;5099971;27;20035;-37
2021/06/13 09:40:42;;;;;;;3.45;3.10;;;;;;;;;;5103224;27;20389;-37
2021/06/13 09:43:15;;;;;;;5.32;3.42;;;;;;;;;;5101258;27;20024;-37
2021/06/13 09:45:45;;;;;;;4.68;4.18;;;;;;;;;;5097284;27;20107;-37
2021/06/13 09:48:10;;;;;;;2.15;1.90;;;;;;;;;;5097555;27;20024;-37
2021/06/13 09:50:35;;;;;;;3.28;2.72;;;;;;;;;;5108479;27;20085;-37
2021/06/13 09:53:18;;;;;;;3.20;1.83;;;;;;;;;;5100582;27;20035;-38
2021/06/13 09:55:43;;;;;;;3.30;2.38;;;;;;;;;;5099824;27;20055;-37
2021/06/13 09:58:09;;;;;;;11.48;4.70;;;;;;;;;;5101842;27;20104;-37
2021/06/13 10:00:34;;;;;;;3.88;3.47;;;;;;;;;;5102599;27;20522;-38
2021/06/13 10:03:18;;;;;;;4.30;3.35;;;;;;;;;;5101139;27;20023;-38
2021/06/13 10:05:53;;;;;;;1.95;1.70;;;;;;;;;;5098204;27;20079;-37
2021/06/13 10:08:19;;;;;;;5.10;4.45;;;;;;;;;;5101005;27;20045;-37
2021/06/13 10:10:44;;;;;;;6.38;4.05;;;;;;;;;;5100716;27;20024;-36
2021/06/13 10:13:09;;;;;;;4.10;2.95;;;;;;;;;;5097799;27;20119;-36
2021/06/13 10:15:35;;;;;;;4.90;2.90;;;;;;;;;;5099694;27;20020;-37
2021/06/13 10:18:10;;;;;;;4.05;2.50;;;;;;;;;;5101542;27;20024;-37
2021/06/13 10:20:36;;;;;;;24.30;4.18;;;;;;;;;;5102057;27;20026;-38
2021/06/13 10:23:01;;;;;;;3.33;2.97;;;;;;;;;;5102874;27;20028;-37
2021/06/13 10:25:26;;;;;;;7.47;1.48;;;;;;;;;;5102411;27;20390;-38
2021/06/13 10:27:52;;;;;;;5.32;4.82;;;;;;;;;;5100780;27;20063;-38
2021/06/13 10:30:17;;;;;;;4.80;3.92;;;;;;;;;;5107484;27;20027;-37
2021/06/13 10:32:43;;;;;;;3.50;2.33;;;;;;;;;;5099677;27;20399;-38
2021/06/13 10:35:09;;;;;;;2.75;1.52;;;;;;;;;;5100033;27;20051;-38
2021/06/13 10:37:34;;;;;;;2.80;2.13;;;;;;;;;;5104589;27;20055;-37
2021/06/13 10:40:02;;;;;;;1.73;1.42;;;;;;;;;;5106873;27;20015;-38
2021/06/13 10:42:27;;;;;;;1.80;1.33;;;;;;;;;;5107735;27;20027;-37
2021/06/13 10:44:56;;;;;;;5.63;4.25;;;;;;;;;;5096857;28;20385;-37
2021/06/13 10:47:22;;;;;;;2.33;2.13;;;;;;;;;;5099101;27;20107;-40
2021/06/13 10:49:56;;;;;;;3.65;3.15;;;;;;;;;;5093445;27;20099;-37
2021/06/13 10:52:25;;;;;;;2.00;1.80;;;;;;;;;;5094618;27;20619;-37
2021/06/13 10:54:53;;;;;;;2.42;1.85;;;;;;;;;;5103070;27;20023;-39
2021/06/13 10:57:19;;;;;;;3.00;2.30;;;;;;;;;;5096683;27;20048;-37
2021/06/13 10:59:48;;;;;;;3.40;2.58;;;;;;;;;;5100145;27;20538;-38
2021/06/13 11:02:17;;;;;;;3.58;2.97;;;;;;;;;;5096561;27;20024;-38
2021/06/13 11:04:45;;;;;;;2.70;2.50;;;;;;;;;;5102315;27;20035;-38
2021/06/13 11:07:43;;;;;;;3.40;2.63;;;;;;;;;;5106304;27;20043;-37
2021/06/13 11:10:09;;;;;;;3.47;2.78;;;;;;;;;;5096230;27;20032;-37
2021/06/13 11:12:41;;;;;;;7.72;3.28;;;;;;;;;;5099578;27;20057;-37
2021/06/13 11:15:07;;;;;;;5.57;1.35;;;;;;;;;;5098934;28;20024;-37
2021/06/13 11:17:52;;;;;;;11.90;4.93;;;;;;;;;;5104242;27;20092;-40
2021/06/13 11:21:14;;;;;;;3.83;3.40;;;;;;;;;;5107759;27;20068;-37
2021/06/13 11:23:23;;;;;;;7.53;3.67;;;;;;;;;;5088265;27;20031;-36
2021/06/13 11:25:49;;;;;;;3.45;2.50;;;;;;;;;;5100293;27;20024;-35
2021/06/13 11:28:17;;;;;;;5.85;3.08;;;;;;;;;;5097958;27;20032;-35
2021/06/13 11:30:44;;;;;;;5.32;3.33;;;;;;;;;;5100239;27;20601;-35
2021/06/13 11:33:10;;;;;;;3.03;2.72;;;;;;;;;;5103281;27;20102;-35
2021/06/13 11:35:37;;;;;;;2.88;2.03;;;;;;;;;;5103527;27;20044;-35
2021/06/13 11:38:08;;;;;;;2.70;1.75;;;;;;;;;;5103209;27;20023;-35
2021/06/13 11:40:34;;;;;;;2.30;2.10;;;;;;;;;;5104894;27;20038;-36
2021/06/13 11:43:09;;;;;;;2.45;2.08;;;;;;;;;;5097562;27;20028;-35
2021/06/13 11:45:34;;;;;;;4.25;3.85;;;;;;;;;;5093443;27;20024;-35
2021/06/13 11:48:19;;;;;;;5.05;2.75;;;;;;;;;;5099413;27;20553;-35
2021/06/13 11:50:57;;;;;;;3.90;2.90;;;;;;;;;;5105837;27;20019;-35
2021/06/13 11:53:58;;;;;;;8.50;4.63;;;;;;;;;;5095388;28;20434;-35
2021/06/13 11:56:36;;;;;;;5.18;3.60;;;;;;;;;;5045864;28;20025;-35
2021/06/13 11:59:13;;;;;;;4.78;4.28;;;;;;;;;;5093512;27;20066;-35
2021/06/13 12:01:40;;;;;;;4.22;3.55;;;;;;;;;;5098976;27;20020;-35
2021/06/13 12:04:11;;;;;;;3.50;3.03;;;;;;;;;;5099251;27;20019;-35
2021/06/13 12:06:37;;;;;;;5.60;3.20;;;;;;;;;;5099566;27;20048;-35
2021/06/13 12:09:09;;;;;;;18.52;4.10;;;;;;;;;;5101844;27;20415;-35
2021/06/13 12:11:38;;;;;;;3.15;2.60;;;;;;;;;;5098749;27;20024;-36
2021/06/13 12:14:22;;;;;;;4.88;4.22;;;;;;;;;;5097296;27;20063;-35
2021/06/13 12:16:48;;;;;;;3.20;2.90;;;;;;;;;;5096704;27;20124;-35
2021/06/13 12:19:14;;;;;;;3.17;2.85;;;;;;;;;;5103595;27;20023;-35
2021/06/13 12:21:40;;;;;;;3.97;3.47;;;;;;;;;;5103989;27;20094;-35
2021/06/13 12:29:39;;;;;;;3.92;3.53;;;;;;;;;;5099192;27;20054;-35
2021/06/13 12:32:14;;;;;;;6.85;5.40;;;;;;;;;;5104501;27;20027;-35
2021/06/13 12:34:40;;;;;;;2.78;2.45;;;;;;;;;;5097827;28;20024;-36
2021/06/13 12:37:06;;;;;;;2.88;2.53;;;;;;;;;;5095137;28;20035;-34
2021/06/13 12:39:31;;;;;;;6.07;5.47;;;;;;;;;;5097164;28;20123;-36
2021/06/13 12:42:10;;;;;;;6.00;4.18;;;;;;;;;;5094170;28;20458;-44
2021/06/13 12:44:37;;;;;;;15.02;5.45;;;;;;;;;;5096164;28;20082;-45
2021/06/13 12:47:07;;;;;;;7.53;4.20;;;;;;;;;;5101452;28;20029;-44
2021/06/13 12:49:42;;;;;;;6.88;6.18;;;;;;;;;;5101022;28;20019;-44
2021/06/13 12:52:09;;;;;;;4.32;2.58;;;;;;;;;;5100279;28;20209;-45
2021/06/13 12:54:34;;;;;;;3.00;2.38;;;;;;;;;;5094213;28;20023;-45
2021/06/13 12:57:00;;;;;;;7.68;5.75;;;;;;;;;;5099766;28;20713;-45
2021/06/13 12:59:25;;;;;;;4.90;3.35;;;;;;;;;;5101861;27;20095;-46
2021/06/13 13:01:50;;;;;;;4.85;4.38;;;;;;;;;;5098420;28;20535;-45
2021/06/13 13:04:36;;;;;;;4.50;3.33;;;;;;;;;;5096381;27;20028;-45
2021/06/13 13:07:01;;;;;;;7.90;3.40;;;;;;;;;;5099158;27;20528;-45
2021/06/13 13:09:26;;;;;;;8.48;3.90;;;;;;;;;;5101798;27;20487;-45
2021/06/13 13:11:52;;;;;;;3.00;2.35;;;;;;;;;;5100318;27;20038;-44
2021/06/13 13:14:18;;;;;;;4.30;3.90;;;;;;;;;;5104395;27;20038;-45
2021/06/13 13:16:43;;;;;;;2.60;2.20;;;;;;;;;;5107834;27;20016;-45
2021/06/13 13:19:10;;;;;;;4.07;3.55;;;;;;;;;;5100426;27;20407;-45
2021/06/13 13:21:36;;;;;;;8.18;3.72;;;;;;;;;;5103420;27;20027;-45
2021/06/13 13:24:03;;;;;;;4.43;4.03;;;;;;;;;;5101648;27;20093;-44
2021/06/13 13:26:28;;;;;;;5.82;5.32;;;;;;;;;;5104516;27;20054;-46
2021/06/13 13:28:55;;;;;;;4.13;3.83;;;;;;;;;;5102881;27;20479;-45
2021/06/13 13:31:21;;;;;;;4.50;3.28;;;;;;;;;;5099140;27;20036;-45
2021/06/13 13:33:59;;;;;;;5.97;3.85;;;;;;;;;;5102328;27;20099;-46
2021/06/13 13:36:37;;;;;;;3.88;3.47;;;;;;;;;;5104147;27;20026;-46
2021/06/13 13:39:09;;;;;;;3.25;2.33;;;;;;;;;;5109090;27;20098;-45
2021/06/13 13:41:38;;;;;;;13.82;5.30;;;;;;;;;;5107042;27;20023;-45
2021/06/13 13:44:06;;;;;;;5.43;3.43;;;;;;;;;;5101444;27;20642;-45
2021/06/13 13:46:36;;;;;;;3.58;3.20;;;;;;;;;;5103824;27;20077;-45
2021/06/13 13:49:03;;;;;;;9.38;4.28;;;;;;;;;;5098153;27;20015;-45
2021/06/13 13:51:29;;;;;;;6.50;5.65;;;;;;;;;;5103216;27;20118;-45
2021/06/13 13:53:55;;;;;;;5.20;4.80;;;;;;;;;;5100198;28;20032;-44
2021/06/13 13:56:24;;;;;;;7.13;5.47;;;;;;;;;;5100824;27;20077;-45
2021/06/13 13:58:50;;;;;;;4.65;4.25;;;;;;;;;;5100114;28;20019;-45
2021/06/13 14:01:17;;;;;;;4.93;4.40;;;;;;;;;;5101990;27;20020;-45
2021/06/13 14:03:42;;;;;;;10.00;5.07;;;;;;;;;;5103185;27;20031;-44
2021/06/13 14:06:08;;;;;;;4.72;4.03;;;;;;;;;;5109256;27;20078;-45
2021/06/13 14:08:59;;;;;;;7.60;4.32;;;;;;;;;;5104301;27;20468;-45
2021/06/13 14:11:24;;;;;;;7.13;4.07;;;;;;;;;;5095137;27;20372;-45
2021/06/13 14:13:50;;;;;;;3.80;3.45;;;;;;;;;;5103791;27;20073;-44
2021/06/13 14:16:15;;;;;;;4.85;4.40;;;;;;;;;;5106600;27;20051;-44
2021/06/13 14:18:41;;;;;;;5.90;4.55;;;;;;;;;;5098913;27;20020;-44
2021/06/13 14:21:07;;;;;;;5.90;5.30;;;;;;;;;;5099999;28;20033;-44
2021/06/13 14:23:33;;;;;;;5.43;4.93;;;;;;;;;;5104892;27;20023;-44
2021/06/13 14:25:58;;;;;;;4.30;3.88;;;;;;;;;;5097104;27;20122;-45
2021/06/13 14:28:25;;;;;;;5.63;3.15;;;;;;;;;;5100620;27;20119;-44
2021/06/13 14:30:50;;;;;;;5.10;3.75;;;;;;;;;;5099995;27;20058;-45
2021/06/13 14:33:16;;;;;;;5.03;4.55;;;;;;;;;;5099498;27;20172;-46
2021/06/13 14:35:42;;;;;;;5.65;4.22;;;;;;;;;;5099371;27;20011;-46
2021/06/13 14:38:07;;;;;;;4.68;4.18;;;;;;;;;;5100558;27;20224;-46
2021/06/13 14:40:33;;;;;;;5.68;4.05;;;;;;;;;;5101763;27;20702;-46
2021/06/13 14:42:58;;;;;;;4.20;3.80;;;;;;;;;;5102952;27;20050;-46